Time;durP1;ratioP1;P1;durP2;ratioP2;P2;SDS_P1;SDS_P2;PMS_P1;PMS_P2;Temp;Humidity;BMP_temperature;BMP_pressure;BME280_temperature;BME280_humidity;BME280_pressure;Samples;Min_cycle;Max_cycle;Signal;HPM_P1;HPM_P2
2022/06/13 00:00:42;;;;;;;5.28;2.50;;;;;;;;;;5066190;28;20324;-15
2022/06/13 00:03:09;;;;;;;6.10;2.42;;;;;;;;;;5068246;28;20259;-15
2022/06/13 00:05:37;;;;;;;4.53;2.08;;;;;;;;;;5068653;28;20229;-15
2022/06/13 00:08:05;;;;;;;5.32;2.13;;;;;;;;;;5067793;28;20226;-16
2022/06/13 00:10:33;;;;;;;4.88;2.47;;;;;;;;;;5066422;28;20237;-16
2022/06/13 00:13:00;;;;;;;4.55;2.17;;;;;;;;;;5063155;28;20269;-15
2022/06/13 00:15:27;;;;;;;5.88;2.35;;;;;;;;;;5064106;28;20221;-15
2022/06/13 00:17:56;;;;;;;5.53;2.30;;;;;;;;;;5057017;28;20230;-16
2022/06/13 00:20:24;;;;;;;5.03;2.20;;;;;;;;;;5059347;28;20240;-15
2022/06/13 00:22:51;;;;;;;6.85;2.47;;;;;;;;;;5062619;28;20255;-16
2022/06/13 00:25:18;;;;;;;3.78;2.13;;;;;;;;;;5063388;28;20236;-16
2022/06/13 00:27:46;;;;;;;4.35;2.25;;;;;;;;;;5068365;28;20658;-15
2022/06/13 00:30:13;;;;;;;4.22;2.20;;;;;;;;;;5064150;28;21062;-15
2022/06/13 00:32:41;;;;;;;4.82;2.70;;;;;;;;;;5056328;28;20238;-15
2022/06/13 00:35:10;;;;;;;4.43;2.25;;;;;;;;;;5052718;28;20694;-15
2022/06/13 00:37:37;;;;;;;5.30;2.20;;;;;;;;;;5061775;28;20245;-15
2022/06/13 00:40:05;;;;;;;7.88;3.15;;;;;;;;;;5059409;28;20659;-15
2022/06/13 00:42:32;;;;;;;4.85;2.60;;;;;;;;;;5064199;28;20225;-15
2022/06/13 00:45:11;;;;;;;7.03;2.55;;;;;;;;;;5059326;28;20713;-15
2022/06/13 00:47:38;;;;;;;4.43;2.08;;;;;;;;;;5063012;28;20226;-16
2022/06/13 00:50:07;;;;;;;9.15;2.17;;;;;;;;;;5062924;28;20238;-16
2022/06/13 00:52:38;;;;;;;3.53;2.20;;;;;;;;;;5059166;28;20604;-16
2022/06/13 00:55:06;;;;;;;6.05;2.47;;;;;;;;;;5064079;28;20217;-16
2022/06/13 00:57:34;;;;;;;5.72;2.88;;;;;;;;;;5059481;28;20281;-15
2022/06/13 01:00:04;;;;;;;6.35;2.22;;;;;;;;;;5062133;28;20226;-15
2022/06/13 01:02:31;;;;;;;4.15;2.38;;;;;;;;;;5064330;28;20225;-15
2022/06/13 01:04:59;;;;;;;4.53;2.13;;;;;;;;;;5061400;28;20232;-16
2022/06/13 01:07:26;;;;;;;5.38;2.10;;;;;;;;;;5066511;28;20230;-16
2022/06/13 01:12:40;;;;;;;7.97;2.20;;;;;;;;;;5059997;28;20244;-16
2022/06/13 01:15:11;;;;;;;4.97;2.42;;;;;;;;;;5056955;28;20705;-15
2022/06/13 01:17:42;;;;;;;4.28;2.40;;;;;;;;;;5057284;28;20234;-15
2022/06/13 01:20:16;;;;;;;4.63;2.75;;;;;;;;;;5060359;28;20234;-16
2022/06/13 01:22:52;;;;;;;6.45;2.95;;;;;;;;;;5054775;28;20249;-16
2022/06/13 01:25:28;;;;;;;5.10;2.28;;;;;;;;;;5054713;28;20238;-15
2022/06/13 01:28:05;;;;;;;5.07;2.42;;;;;;;;;;5051476;28;20964;-16
2022/06/13 01:30:44;;;;;;;5.30;2.53;;;;;;;;;;5059493;28;20259;-16
2022/06/13 01:33:13;;;;;;;4.93;2.63;;;;;;;;;;5055512;28;20277;-16
2022/06/13 01:35:43;;;;;;;8.85;2.70;;;;;;;;;;5058184;28;20604;-16
2022/06/13 01:38:15;;;;;;;3.50;2.38;;;;;;;;;;5061815;28;20288;-15
2022/06/13 01:40:46;;;;;;;4.75;2.88;;;;;;;;;;5056851;28;20233;-16
2022/06/13 01:43:15;;;;;;;6.63;2.92;;;;;;;;;;5058207;28;20333;-15
2022/06/13 01:45:45;;;;;;;5.28;2.90;;;;;;;;;;5060816;28;20234;-15
2022/06/13 01:48:15;;;;;;;5.05;2.80;;;;;;;;;;5065464;28;20991;-15
2022/06/13 01:50:43;;;;;;;4.53;2.72;;;;;;;;;;5065468;28;20306;-16
2022/06/13 01:53:13;;;;;;;4.47;2.25;;;;;;;;;;5072204;28;20335;-15
2022/06/13 01:55:41;;;;;;;6.18;2.95;;;;;;;;;;5067610;28;20232;-16
2022/06/13 01:58:10;;;;;;;6.93;2.28;;;;;;;;;;5066033;28;20237;-15
2022/06/13 02:00:37;;;;;;;7.05;2.63;;;;;;;;;;5070630;28;20228;-15
2022/06/13 02:03:08;;;;;;;5.70;2.80;;;;;;;;;;5055348;28;20226;-15
2022/06/13 02:05:36;;;;;;;5.03;2.40;;;;;;;;;;5062166;28;20236;-15
2022/06/13 02:08:06;;;;;;;7.30;3.00;;;;;;;;;;5063873;28;20657;-16
2022/06/13 02:10:51;;;;;;;4.28;3.05;;;;;;;;;;5066990;28;20225;-16
2022/06/13 02:13:26;;;;;;;5.35;2.90;;;;;;;;;;5064179;28;20241;-15
2022/06/13 02:15:54;;;;;;;7.68;3.20;;;;;;;;;;5065263;28;20229;-15
2022/06/13 02:18:25;;;;;;;5.43;2.95;;;;;;;;;;5059962;28;20241;-16
2022/06/13 02:20:53;;;;;;;4.47;2.63;;;;;;;;;;5085333;22;20622;-15
2022/06/13 02:23:20;;;;;;;4.38;2.67;;;;;;;;;;5092852;28;20251;-15
2022/06/13 02:25:49;;;;;;;5.13;2.97;;;;;;;;;;5088547;28;20236;-15
2022/06/13 02:28:18;;;;;;;11.30;2.88;;;;;;;;;;5089336;28;21031;-15
2022/06/13 02:30:46;;;;;;;5.82;2.88;;;;;;;;;;5094563;28;20225;-15
2022/06/13 02:33:15;;;;;;;6.40;2.88;;;;;;;;;;5095637;28;20243;-15
2022/06/13 02:35:44;;;;;;;5.25;2.60;;;;;;;;;;5096533;28;20225;-15
2022/06/13 02:38:12;;;;;;;7.55;3.15;;;;;;;;;;5099780;28;20232;-15
2022/06/13 02:40:44;;;;;;;5.25;2.90;;;;;;;;;;5087619;28;20730;-15
2022/06/13 02:43:12;;;;;;;6.05;3.13;;;;;;;;;;5094469;28;20681;-15
2022/06/13 02:45:40;;;;;;;4.47;2.50;;;;;;;;;;5098570;28;20243;-15
2022/06/13 02:48:08;;;;;;;4.45;2.78;;;;;;;;;;5093634;28;20239;-15
2022/06/13 02:50:37;;;;;;;6.97;2.75;;;;;;;;;;5085476;28;20745;-15
2022/06/13 02:53:07;;;;;;;5.53;3.10;;;;;;;;;;5089472;28;20915;-15
2022/06/13 02:55:40;;;;;;;4.38;2.92;;;;;;;;;;5093388;28;20742;-16
2022/06/13 02:58:09;;;;;;;5.95;2.72;;;;;;;;;;5093723;28;20718;-16
2022/06/13 03:00:46;;;;;;;9.02;3.67;;;;;;;;;;5088867;28;20229;-16
2022/06/13 03:03:14;;;;;;;5.30;3.05;;;;;;;;;;5089618;28;20230;-16
2022/06/13 03:05:44;;;;;;;6.32;3.25;;;;;;;;;;5083155;28;20891;-15
2022/06/13 03:08:19;;;;;;;5.82;3.05;;;;;;;;;;5079928;28;20229;-15
2022/06/13 03:10:48;;;;;;;6.40;3.53;;;;;;;;;;5080671;28;20243;-15
2022/06/13 03:13:18;;;;;;;7.18;3.78;;;;;;;;;;5088423;28;20237;-16
2022/06/13 03:15:45;;;;;;;6.82;3.60;;;;;;;;;;5081855;28;20228;-16
2022/06/13 03:18:14;;;;;;;3.97;2.58;;;;;;;;;;5089487;28;20235;-16
2022/06/13 03:20:44;;;;;;;7.25;2.88;;;;;;;;;;5083475;28;20228;-15
2022/06/13 03:23:12;;;;;;;6.10;3.30;;;;;;;;;;5083957;28;20724;-16
2022/06/13 03:25:41;;;;;;;6.18;3.08;;;;;;;;;;5075575;28;20299;-15
2022/06/13 03:28:10;;;;;;;7.22;3.45;;;;;;;;;;5086500;28;20239;-16
2022/06/13 03:30:38;;;;;;;5.55;3.15;;;;;;;;;;5088419;28;20232;-15
2022/06/13 03:35:52;;;;;;;6.07;3.20;;;;;;;;;;5087099;28;20235;-16
2022/06/13 03:38:20;;;;;;;8.07;3.17;;;;;;;;;;5081630;28;20232;-16
2022/06/13 03:40:49;;;;;;;5.20;3.17;;;;;;;;;;5084701;28;20837;-15
2022/06/13 03:43:18;;;;;;;7.28;3.25;;;;;;;;;;5081160;28;20231;-15
2022/06/13 03:45:47;;;;;;;7.38;3.45;;;;;;;;;;5084945;28;20233;-15
2022/06/13 03:48:15;;;;;;;5.20;3.22;;;;;;;;;;5083639;28;20234;-16
2022/06/13 03:50:43;;;;;;;4.70;3.00;;;;;;;;;;5083753;28;20236;-15
2022/06/13 03:53:12;;;;;;;6.57;2.85;;;;;;;;;;5086232;28;20296;-15
2022/06/13 03:55:40;;;;;;;5.32;3.30;;;;;;;;;;5087231;28;20726;-16
2022/06/13 03:58:10;;;;;;;6.55;3.28;;;;;;;;;;5082333;28;20225;-15
2022/06/13 04:00:39;;;;;;;5.80;2.90;;;;;;;;;;5081099;28;20645;-16
2022/06/13 04:03:06;;;;;;;4.68;3.22;;;;;;;;;;5082735;28;20253;-16
2022/06/13 04:05:34;;;;;;;4.68;3.20;;;;;;;;;;5083143;28;20229;-15
2022/06/13 04:08:02;;;;;;;5.47;3.38;;;;;;;;;;5077789;28;20225;-15
2022/06/13 04:10:29;;;;;;;6.78;3.33;;;;;;;;;;5086263;28;20231;-16
2022/06/13 04:13:04;;;;;;;5.80;3.47;;;;;;;;;;5091579;28;20248;-16
2022/06/13 04:15:37;;;;;;;6.15;3.25;;;;;;;;;;5085403;28;20749;-16
2022/06/13 04:18:06;;;;;;;7.65;3.78;;;;;;;;;;5088814;28;20948;-16
2022/06/13 04:20:37;;;;;;;6.63;3.53;;;;;;;;;;5076599;28;20360;-16
2022/06/13 04:23:06;;;;;;;7.53;3.55;;;;;;;;;;5079906;28;20760;-16
2022/06/13 04:25:34;;;;;;;9.50;3.75;;;;;;;;;;5091317;28;20244;-16
2022/06/13 04:28:03;;;;;;;6.65;3.45;;;;;;;;;;5078375;28;20233;-15
2022/06/13 04:30:31;;;;;;;4.90;3.70;;;;;;;;;;5085761;28;20251;-16
2022/06/13 04:33:01;;;;;;;6.93;3.50;;;;;;;;;;5079180;28;20245;-16
2022/06/13 04:35:29;;;;;;;8.60;3.50;;;;;;;;;;5081717;28;20233;-15
2022/06/13 04:37:57;;;;;;;6.55;4.05;;;;;;;;;;5080092;28;20256;-15
2022/06/13 04:40:24;;;;;;;4.32;2.72;;;;;;;;;;5084661;28;21028;-16
2022/06/13 04:42:52;;;;;;;7.30;3.15;;;;;;;;;;5081739;28;21008;-16
2022/06/13 04:45:21;;;;;;;7.07;3.53;;;;;;;;;;5078070;28;20236;-16
2022/06/13 04:47:48;;;;;;;7.05;3.45;;;;;;;;;;5084301;28;20876;-16
2022/06/13 04:50:18;;;;;;;7.55;3.33;;;;;;;;;;5079196;28;20235;-16
2022/06/13 04:52:45;;;;;;;6.68;3.85;;;;;;;;;;5086740;28;20233;-15
2022/06/13 04:55:13;;;;;;;9.80;3.50;;;;;;;;;;5086761;28;20255;-16
2022/06/13 04:57:41;;;;;;;7.22;3.45;;;;;;;;;;5079012;28;20961;-16
2022/06/13 05:00:09;;;;;;;9.70;3.75;;;;;;;;;;5081970;28;20233;-16
2022/06/13 05:02:38;;;;;;;6.50;3.15;;;;;;;;;;5080384;28;20229;-16
2022/06/13 05:05:05;;;;;;;8.82;3.35;;;;;;;;;;5080664;28;20258;-15
2022/06/13 05:07:34;;;;;;;6.65;3.20;;;;;;;;;;5076457;28;20229;-16
2022/06/13 05:10:02;;;;;;;6.78;3.95;;;;;;;;;;5078224;28;20225;-15
2022/06/13 05:12:31;;;;;;;7.75;4.07;;;;;;;;;;5074463;28;20308;-16
2022/06/13 05:15:01;;;;;;;6.85;3.20;;;;;;;;;;5080146;28;21025;-15
2022/06/13 05:17:46;;;;;;;7.32;3.70;;;;;;;;;;5077252;28;20225;-15
2022/06/13 05:20:14;;;;;;;8.20;3.50;;;;;;;;;;5045513;28;20708;-16
2022/06/13 05:22:51;;;;;;;7.05;3.67;;;;;;;;;;5081156;28;20681;-16
2022/06/13 05:25:40;;;;;;;7.78;3.67;;;;;;;;;;5083713;28;20220;-16
2022/06/13 05:28:08;;;;;;;7.65;3.40;;;;;;;;;;5077046;28;20226;-15
2022/06/13 05:30:35;;;;;;;9.02;3.75;;;;;;;;;;5085829;28;20240;-15
2022/06/13 05:33:05;;;;;;;7.05;4.05;;;;;;;;;;5076149;28;20237;-15
2022/06/13 05:35:33;;;;;;;7.90;3.53;;;;;;;;;;5082699;28;20231;-16
2022/06/13 05:38:02;;;;;;;6.50;3.42;;;;;;;;;;5082581;28;20947;-15
2022/06/13 05:40:30;;;;;;;8.02;3.63;;;;;;;;;;5081283;28;20230;-16
2022/06/13 05:42:57;;;;;;;12.40;4.18;;;;;;;;;;5087987;28;20235;-16
2022/06/13 05:45:24;;;;;;;6.07;4.00;;;;;;;;;;5090077;28;20228;-16
2022/06/13 05:47:53;;;;;;;6.43;3.90;;;;;;;;;;5082910;28;20233;-16
2022/06/13 05:50:20;;;;;;;7.50;4.15;;;;;;;;;;5081133;28;21023;-16
2022/06/13 05:52:48;;;;;;;9.65;4.25;;;;;;;;;;5079092;28;20521;-16
2022/06/13 05:55:17;;;;;;;9.02;4.18;;;;;;;;;;5080457;28;20244;-15
2022/06/13 05:58:00;;;;;;;8.55;3.88;;;;;;;;;;5076928;28;20241;-16
2022/06/13 06:00:28;;;;;;;9.05;3.90;;;;;;;;;;5084623;28;20331;-15
2022/06/13 06:02:55;;;;;;;8.70;4.07;;;;;;;;;;5082340;28;20660;-15
2022/06/13 06:05:23;;;;;;;8.55;4.28;;;;;;;;;;5080417;28;20232;-16
2022/06/13 06:07:50;;;;;;;11.65;4.30;;;;;;;;;;5074731;28;20264;-15
2022/06/13 06:10:20;;;;;;;9.70;4.72;;;;;;;;;;5075795;28;20228;-16
2022/06/13 06:12:47;;;;;;;10.20;4.15;;;;;;;;;;5080790;28;20225;-16
2022/06/13 06:15:15;;;;;;;12.48;3.95;;;;;;;;;;5086778;28;20232;-15
2022/06/13 06:17:42;;;;;;;9.75;4.55;;;;;;;;;;5086437;28;20251;-16
2022/06/13 06:20:11;;;;;;;10.25;4.20;;;;;;;;;;5089256;28;20715;-15
2022/06/13 06:22:38;;;;;;;13.65;4.40;;;;;;;;;;5082338;28;20244;-16
2022/06/13 06:25:06;;;;;;;8.80;4.00;;;;;;;;;;5084981;28;20601;-15
2022/06/13 06:27:34;;;;;;;9.00;3.70;;;;;;;;;;5085633;28;20240;-16
2022/06/13 06:30:02;;;;;;;9.15;3.70;;;;;;;;;;5079888;28;20236;-15
2022/06/13 06:32:29;;;;;;;7.65;3.55;;;;;;;;;;5077997;28;20221;-15
2022/06/13 06:34:57;;;;;;;11.30;3.60;;;;;;;;;;5079833;28;20245;-16
2022/06/13 06:37:24;;;;;;;10.10;4.13;;;;;;;;;;5084752;28;20221;-15
2022/06/13 06:39:51;;;;;;;13.57;3.65;;;;;;;;;;5081336;28;20235;-15
2022/06/13 06:42:19;;;;;;;9.80;3.65;;;;;;;;;;5080787;28;20987;-15
2022/06/13 06:45:08;;;;;;;11.10;3.70;;;;;;;;;;5084934;28;20228;-15
2022/06/13 06:47:36;;;;;;;13.48;3.67;;;;;;;;;;5086368;28;21053;-16
2022/06/13 06:50:04;;;;;;;15.35;3.28;;;;;;;;;;5087143;28;20232;-16
2022/06/13 06:52:31;;;;;;;8.40;3.22;;;;;;;;;;5086154;28;20229;-16
2022/06/13 07:00:29;;;;;;;15.63;3.55;;;;;;;;;;5083693;28;20597;-16
2022/06/13 07:02:57;;;;;;;5.97;2.45;;;;;;;;;;5088178;28;20967;-15
2022/06/13 07:05:24;;;;;;;9.13;2.22;;;;;;;;;;5088861;28;20224;-15
2022/06/13 07:07:52;;;;;;;8.73;2.53;;;;;;;;;;5088295;28;20233;-16
2022/06/13 07:10:20;;;;;;;7.10;2.42;;;;;;;;;;5082559;28;20247;-16
2022/06/13 07:12:47;;;;;;;6.05;2.42;;;;;;;;;;5083701;28;20344;-16
2022/06/13 07:15:14;;;;;;;7.65;2.70;;;;;;;;;;5083037;28;20252;-16
2022/06/13 07:17:43;;;;;;;8.88;2.40;;;;;;;;;;5084433;28;20229;-15
2022/06/13 07:20:11;;;;;;;7.00;2.22;;;;;;;;;;5085762;28;20229;-16
2022/06/13 07:22:41;;;;;;;6.38;2.13;;;;;;;;;;5079717;28;20241;-16
2022/06/13 07:25:09;;;;;;;9.13;1.98;;;;;;;;;;5089822;28;20224;-16
2022/06/13 07:27:37;;;;;;;8.57;2.55;;;;;;;;;;5084850;28;20238;-16
2022/06/13 07:30:05;;;;;;;9.30;1.92;;;;;;;;;;5088931;28;20726;-16
2022/06/13 07:32:32;;;;;;;6.40;2.38;;;;;;;;;;5086355;28;20723;-16
2022/06/13 07:35:02;;;;;;;9.55;1.90;;;;;;;;;;5086335;28;20248;-16
2022/06/13 07:40:14;;;;;;;9.55;2.28;;;;;;;;;;5085863;28;20221;-16
2022/06/13 07:42:43;;;;;;;8.93;2.10;;;;;;;;;;5082823;28;20229;-16
2022/06/13 07:45:12;;;;;;;12.65;2.05;;;;;;;;;;5080559;28;20217;-15
2022/06/13 07:47:59;;;;;;;9.90;2.20;;;;;;;;;;5085559;28;20239;-16
2022/06/13 07:50:28;;;;;;;11.82;1.67;;;;;;;;;;5092153;28;20235;-16
2022/06/13 07:52:57;;;;;;;14.60;2.85;;;;;;;;;;5095492;28;20236;-16
2022/06/13 07:55:25;;;;;;;7.75;2.08;;;;;;;;;;5091463;28;20245;-16
2022/06/13 07:57:52;;;;;;;7.13;2.13;;;;;;;;;;5090770;28;20442;-16
2022/06/13 08:00:21;;;;;;;7.25;2.35;;;;;;;;;;5091250;28;20235;-16
2022/06/13 08:02:49;;;;;;;6.60;1.88;;;;;;;;;;5089228;28;20720;-16
2022/06/13 08:05:16;;;;;;;5.25;1.90;;;;;;;;;;5091953;28;20591;-16
2022/06/13 08:07:45;;;;;;;5.50;1.70;;;;;;;;;;5091509;28;21174;-16
2022/06/13 08:10:13;;;;;;;4.97;2.20;;;;;;;;;;5086858;28;20236;-16
2022/06/13 08:12:40;;;;;;;3.65;2.08;;;;;;;;;;5086260;28;20229;-16
2022/06/13 08:15:08;;;;;;;5.35;1.90;;;;;;;;;;5089134;28;20248;-16
2022/06/13 08:17:35;;;;;;;5.72;1.75;;;;;;;;;;5087563;28;20637;-16
2022/06/13 08:20:03;;;;;;;4.68;1.90;;;;;;;;;;5086022;28;20260;-16
2022/06/13 08:22:32;;;;;;;7.43;1.95;;;;;;;;;;5077642;28;20272;-16
2022/06/13 08:25:00;;;;;;;4.70;1.90;;;;;;;;;;5079231;28;20225;-16
2022/06/13 08:27:28;;;;;;;6.50;1.77;;;;;;;;;;5085510;28;20441;-16
2022/06/13 08:29:56;;;;;;;7.75;2.05;;;;;;;;;;5087002;28;20276;-16
2022/06/13 08:32:23;;;;;;;6.60;1.63;;;;;;;;;;5083917;28;20221;-16
2022/06/13 08:34:51;;;;;;;8.02;1.73;;;;;;;;;;5074632;28;20239;-16
2022/06/13 08:37:18;;;;;;;5.38;1.60;;;;;;;;;;5081716;28;20230;-16
2022/06/13 08:39:45;;;;;;;5.43;1.77;;;;;;;;;;5084394;28;20415;-16
2022/06/13 08:42:15;;;;;;;6.97;1.67;;;;;;;;;;5085592;28;20236;-16
2022/06/13 08:44:53;;;;;;;3.83;1.40;;;;;;;;;;5078291;28;20228;-16
2022/06/13 08:47:23;;;;;;;7.57;1.40;;;;;;;;;;5084766;28;20228;-18
2022/06/13 08:49:54;;;;;;;11.57;1.63;;;;;;;;;;5087090;28;20231;-18
2022/06/13 08:52:25;;;;;;;4.72;1.63;;;;;;;;;;5083420;28;20243;-16
2022/06/13 08:54:54;;;;;;;6.28;1.60;;;;;;;;;;5087812;28;20232;-18
2022/06/13 08:57:25;;;;;;;6.07;1.38;;;;;;;;;;5084013;28;20232;-16
2022/06/13 08:59:54;;;;;;;4.80;1.75;;;;;;;;;;5082275;28;20764;-16
2022/06/13 09:02:23;;;;;;;3.88;1.48;;;;;;;;;;5086026;28;20809;-16
2022/06/13 09:04:51;;;;;;;3.38;1.35;;;;;;;;;;5088359;28;20236;-16
2022/06/13 09:07:20;;;;;;;3.55;1.48;;;;;;;;;;5086164;28;20722;-16
2022/06/13 09:09:48;;;;;;;7.60;1.45;;;;;;;;;;5079721;28;20220;-16
2022/06/13 09:12:19;;;;;;;6.07;1.55;;;;;;;;;;5085002;28;20311;-16
2022/06/13 09:14:48;;;;;;;7.85;1.40;;;;;;;;;;5083409;28;20239;-16
2022/06/13 09:17:16;;;;;;;8.00;1.70;;;;;;;;;;5091027;28;20238;-16
2022/06/13 09:19:45;;;;;;;4.13;1.25;;;;;;;;;;5086606;28;20229;-16
2022/06/13 09:22:15;;;;;;;4.65;1.23;;;;;;;;;;5086166;28;20250;-16
2022/06/13 09:24:43;;;;;;;3.45;1.23;;;;;;;;;;5087101;28;20235;-15
2022/06/13 09:27:13;;;;;;;3.40;1.30;;;;;;;;;;5086989;28;20696;-16
2022/06/13 09:29:41;;;;;;;3.95;1.27;;;;;;;;;;5087539;28;20240;-16
2022/06/13 09:32:11;;;;;;;3.13;1.20;;;;;;;;;;5087782;28;20443;-16
2022/06/13 09:34:39;;;;;;;5.32;1.58;;;;;;;;;;5084283;28;20279;-16
2022/06/13 09:37:08;;;;;;;7.00;1.40;;;;;;;;;;5086585;28;21209;-16
2022/06/13 09:39:36;;;;;;;3.83;1.25;;;;;;;;;;5087234;28;20277;-16
2022/06/13 09:42:15;;;;;;;4.13;1.23;;;;;;;;;;5086890;28;20998;-15
2022/06/13 09:44:49;;;;;;;4.85;1.25;;;;;;;;;;5084288;28;20439;-16
2022/06/13 09:47:18;;;;;;;3.78;0.95;;;;;;;;;;5087217;28;20232;-15
2022/06/13 09:49:48;;;;;;;3.25;0.90;;;;;;;;;;5084316;28;20702;-16
2022/06/13 09:52:18;;;;;;;2.28;0.90;;;;;;;;;;5086888;28;20992;-16
2022/06/13 09:54:47;;;;;;;5.30;1.08;;;;;;;;;;5088091;28;20259;-16
2022/06/13 09:57:17;;;;;;;4.50;0.80;;;;;;;;;;5084620;28;20240;-15
2022/06/13 09:59:48;;;;;;;4.60;1.10;;;;;;;;;;5086127;28;20473;-16
2022/06/13 10:02:18;;;;;;;4.22;0.90;;;;;;;;;;5081073;28;20324;-16
2022/06/13 10:04:49;;;;;;;6.22;1.17;;;;;;;;;;5087068;28;20236;-16
2022/06/13 10:07:18;;;;;;;5.03;0.88;;;;;;;;;;5085057;28;20236;-16
2022/06/13 10:09:47;;;;;;;3.63;0.88;;;;;;;;;;5082480;28;20660;-16
2022/06/13 10:12:17;;;;;;;2.17;0.77;;;;;;;;;;5088229;28;20232;-15
2022/06/13 10:14:50;;;;;;;3.28;0.98;;;;;;;;;;5090191;28;20583;-16
2022/06/13 10:17:23;;;;;;;2.83;1.30;;;;;;;;;;5082368;28;20237;-16
2022/06/13 10:19:54;;;;;;;4.70;0.80;;;;;;;;;;5083371;28;20236;-15
2022/06/13 10:22:22;;;;;;;5.65;1.00;;;;;;;;;;5086000;28;20422;-15
2022/06/13 10:24:53;;;;;;;7.68;1.05;;;;;;;;;;5090514;28;20224;-15
2022/06/13 10:27:23;;;;;;;4.88;0.80;;;;;;;;;;5086895;28;20426;-15
2022/06/13 10:30:17;;;;;;;4.47;0.90;;;;;;;;;;5088452;28;20719;-15
2022/06/13 10:32:49;;;;;;;3.67;0.80;;;;;;;;;;5041684;28;20275;-15
2022/06/13 10:35:20;;;;;;;5.50;0.80;;;;;;;;;;5089262;28;20237;-15
2022/06/13 10:37:50;;;;;;;3.20;0.80;;;;;;;;;;5089705;28;20241;-15
2022/06/13 10:40:18;;;;;;;5.50;1.42;;;;;;;;;;5085402;28;21055;-15
2022/06/13 10:42:45;;;;;;;4.37;0.90;;;;;;;;;;5092403;28;20423;-15
2022/06/13 10:45:13;;;;;;;4.97;0.90;;;;;;;;;;5088351;28;20232;-16
2022/06/13 10:47:41;;;;;;;2.80;0.80;;;;;;;;;;5086041;28;20451;-15
2022/06/13 10:50:11;;;;;;;4.25;0.90;;;;;;;;;;5088411;28;20259;-15
2022/06/13 10:52:40;;;;;;;3.90;0.93;;;;;;;;;;5088184;28;21075;-15
2022/06/13 10:55:08;;;;;;;3.83;0.73;;;;;;;;;;5088620;28;20236;-17
2022/06/13 10:57:45;;;;;;;1.85;0.77;;;;;;;;;;5088627;28;20240;-15
2022/06/13 11:00:14;;;;;;;3.30;0.73;;;;;;;;;;5092059;28;20236;-16
2022/06/13 11:02:41;;;;;;;4.47;0.85;;;;;;;;;;5088803;28;20247;-16
2022/06/13 11:05:11;;;;;;;2.45;0.60;;;;;;;;;;5088107;28;20232;-15
2022/06/13 11:07:42;;;;;;;3.70;0.75;;;;;;;;;;5087637;28;21015;-15
2022/06/13 11:10:17;;;;;;;5.32;0.90;;;;;;;;;;5084791;28;20233;-15
2022/06/13 11:12:48;;;;;;;4.68;0.82;;;;;;;;;;5086363;28;21044;-15
2022/06/13 11:23:48;;;;;;;4.03;0.80;;;;;;;;;;5083063;28;20622;-15
2022/06/13 11:28:56;;;;;;;1.95;0.68;;;;;;;;;;5085961;28;20233;-15
2022/06/13 11:31:26;;;;;;;3.50;0.63;;;;;;;;;;5090041;28;20229;-15
2022/06/13 11:33:53;;;;;;;3.72;0.93;;;;;;;;;;5087413;28;20282;-16
2022/06/13 11:36:24;;;;;;;2.08;0.60;;;;;;;;;;5087829;28;20284;-15
2022/06/13 11:38:52;;;;;;;4.65;0.70;;;;;;;;;;5088772;28;20695;-15
2022/06/13 11:41:19;;;;;;;4.07;0.70;;;;;;;;;;5085208;28;20320;-15
2022/06/13 11:43:48;;;;;;;14.40;1.40;;;;;;;;;;5081975;28;20905;-15
2022/06/13 11:46:17;;;;;;;6.63;1.20;;;;;;;;;;5083929;28;20244;-15
2022/06/13 11:48:45;;;;;;;6.68;0.90;;;;;;;;;;5094765;28;20224;-16
2022/06/13 11:51:19;;;;;;;8.43;0.77;;;;;;;;;;5086769;28;20250;-15
2022/06/13 11:53:48;;;;;;;9.48;0.85;;;;;;;;;;5090423;28;20224;-15
2022/06/13 11:56:21;;;;;;;7.18;1.02;;;;;;;;;;5085761;28;20316;-16
2022/06/13 11:58:48;;;;;;;4.43;0.90;;;;;;;;;;5081463;28;20247;-16
2022/06/13 12:01:18;;;;;;;4.47;0.70;;;;;;;;;;5087482;28;20636;-15
2022/06/13 12:03:47;;;;;;;6.38;0.98;;;;;;;;;;5091937;28;21027;-15
2022/06/13 12:06:15;;;;;;;2.78;1.02;;;;;;;;;;5084259;28;20316;-15
2022/06/13 12:08:43;;;;;;;3.83;0.80;;;;;;;;;;5087495;28;20233;-16
2022/06/13 12:11:22;;;;;;;1.08;0.60;;;;;;;;;;5083772;28;20236;-15
2022/06/13 12:13:49;;;;;;;3.45;0.90;;;;;;;;;;5081913;28;20240;-15
2022/06/13 12:16:19;;;;;;;7.82;1.27;;;;;;;;;;5090596;28;20228;-16
2022/06/13 12:18:49;;;;;;;2.85;0.80;;;;;;;;;;5087161;28;20330;-16
2022/06/13 12:21:18;;;;;;;4.35;0.82;;;;;;;;;;5085702;28;20243;-15
2022/06/13 12:23:46;;;;;;;3.15;0.90;;;;;;;;;;5086458;28;20229;-16
2022/06/13 12:26:16;;;;;;;3.50;0.90;;;;;;;;;;5088445;28;20232;-15
2022/06/13 12:28:48;;;;;;;2.67;0.95;;;;;;;;;;5087880;28;20695;-16
2022/06/13 12:31:17;;;;;;;3.10;1.10;;;;;;;;;;5088872;28;20316;-16
2022/06/13 12:33:54;;;;;;;2.80;0.73;;;;;;;;;;5087559;28;20236;-15
2022/06/13 12:36:25;;;;;;;4.10;0.75;;;;;;;;;;5086621;28;20236;-15
2022/06/13 12:38:58;;;;;;;2.67;0.80;;;;;;;;;;5092772;28;20274;-15
2022/06/13 12:41:28;;;;;;;4.07;0.70;;;;;;;;;;5085348;28;20248;-16
2022/06/13 12:44:00;;;;;;;5.35;1.27;;;;;;;;;;5085845;28;20237;-15
2022/06/13 12:46:30;;;;;;;2.75;0.90;;;;;;;;;;5085901;28;20247;-15
2022/06/13 12:49:01;;;;;;;3.70;0.70;;;;;;;;;;5083589;28;20239;-15
2022/06/13 12:51:31;;;;;;;2.40;0.90;;;;;;;;;;5083966;28;20268;-16
2022/06/13 12:54:06;;;;;;;3.83;0.63;;;;;;;;;;5084174;28;20233;-15
2022/06/13 12:56:35;;;;;;;3.35;0.77;;;;;;;;;;5087112;28;20228;-16
2022/06/13 12:59:08;;;;;;;3.03;0.90;;;;;;;;;;5087933;28;20248;-15
2022/06/13 13:01:36;;;;;;;2.70;0.75;;;;;;;;;;5086138;28;20221;-16
2022/06/13 13:04:28;;;;;;;3.67;0.70;;;;;;;;;;5090856;28;20695;-15
2022/06/13 13:06:58;;;;;;;2.05;0.90;;;;;;;;;;5081593;28;20232;-15
2022/06/13 13:09:35;;;;;;;2.28;0.60;;;;;;;;;;5086328;28;20229;-15
2022/06/13 13:12:12;;;;;;;1.92;0.75;;;;;;;;;;5083754;28;20375;-15
2022/06/13 13:14:42;;;;;;;2.95;1.10;;;;;;;;;;5082147;28;20228;-15
2022/06/13 13:17:14;;;;;;;5.50;0.95;;;;;;;;;;5085483;28;20240;-15
2022/06/13 13:19:45;;;;;;;1.92;0.77;;;;;;;;;;5086954;28;20236;-16
2022/06/13 13:22:13;;;;;;;6.88;1.10;;;;;;;;;;5085446;28;20241;-16
2022/06/13 13:24:44;;;;;;;7.55;0.90;;;;;;;;;;5086638;28;20233;-16
2022/06/13 13:27:12;;;;;;;4.72;1.02;;;;;;;;;;5084236;28;20229;-17
2022/06/13 13:29:44;;;;;;;4.57;0.68;;;;;;;;;;5085783;28;20235;-16
2022/06/13 13:32:13;;;;;;;6.90;1.08;;;;;;;;;;5087507;28;20229;-15
2022/06/13 13:34:44;;;;;;;3.63;0.95;;;;;;;;;;5085913;28;20703;-16
2022/06/13 13:37:19;;;;;;;3.80;0.82;;;;;;;;;;5085761;28;20327;-15
2022/06/13 13:39:48;;;;;;;8.15;1.20;;;;;;;;;;5087510;28;20247;-15
2022/06/13 13:42:17;;;;;;;7.63;1.02;;;;;;;;;;5085847;28;20243;-15
2022/06/13 13:44:47;;;;;;;3.75;0.80;;;;;;;;;;5085141;28;20233;-15
2022/06/13 13:47:14;;;;;;;6.65;1.05;;;;;;;;;;5082377;28;20242;-16
2022/06/13 13:49:43;;;;;;;5.40;1.15;;;;;;;;;;5087761;28;20228;-16
2022/06/13 13:52:13;;;;;;;4.35;1.00;;;;;;;;;;5085656;28;20257;-16
2022/06/13 13:54:41;;;;;;;8.23;1.45;;;;;;;;;;5086757;28;20237;-16
2022/06/13 13:57:10;;;;;;;4.00;0.60;;;;;;;;;;5086194;28;20233;-15
2022/06/13 13:59:39;;;;;;;2.63;0.80;;;;;;;;;;5088054;28;20244;-16
2022/06/13 14:02:09;;;;;;;5.70;1.08;;;;;;;;;;5085765;28;20239;-16
2022/06/13 14:04:57;;;;;;;2.55;0.80;;;;;;;;;;5085809;28;20979;-15
2022/06/13 14:07:40;;;;;;;6.07;1.20;;;;;;;;;;5079448;28;20233;-16
2022/06/13 14:10:08;;;;;;;4.05;1.00;;;;;;;;;;5067836;28;20427;-16
2022/06/13 14:12:50;;;;;;;6.40;1.00;;;;;;;;;;5088353;28;20244;-16
2022/06/13 14:15:17;;;;;;;6.90;1.50;;;;;;;;;;5087240;28;20236;-16
2022/06/13 14:17:48;;;;;;;4.80;0.93;;;;;;;;;;5086843;28;20331;-16
2022/06/13 14:20:20;;;;;;;6.43;1.00;;;;;;;;;;5083502;28;20969;-16
2022/06/13 14:22:49;;;;;;;4.97;0.88;;;;;;;;;;5087633;28;20241;-16
2022/06/13 14:25:19;;;;;;;3.78;0.82;;;;;;;;;;5084836;28;20243;-16
2022/06/13 14:27:51;;;;;;;7.60;1.05;;;;;;;;;;5087726;28;20908;-16
2022/06/13 14:33:06;;;;;;;3.63;0.98;;;;;;;;;;5079309;28;20713;-16
2022/06/13 14:35:48;;;;;;;7.60;0.98;;;;;;;;;;5084657;28;20232;-16
2022/06/13 14:38:17;;;;;;;3.65;1.02;;;;;;;;;;5087512;28;20224;-16
2022/06/13 14:40:45;;;;;;;2.72;0.80;;;;;;;;;;5085281;28;20233;-18
2022/06/13 14:43:14;;;;;;;2.92;0.80;;;;;;;;;;5085970;28;20237;-16
2022/06/13 14:45:43;;;;;;;2.22;0.82;;;;;;;;;;5088053;28;20237;-16
2022/06/13 14:48:19;;;;;;;6.78;0.93;;;;;;;;;;5083968;28;20506;-16
2022/06/13 14:50:48;;;;;;;3.47;0.85;;;;;;;;;;5086089;28;20224;-16
2022/06/13 14:53:30;;;;;;;4.53;0.80;;;;;;;;;;5084495;28;20237;-16
2022/06/13 14:56:16;;;;;;;2.90;0.90;;;;;;;;;;5083479;28;20258;-16
2022/06/13 14:58:56;;;;;;;4.53;0.93;;;;;;;;;;5089090;28;20232;-16
2022/06/13 15:01:25;;;;;;;3.40;1.17;;;;;;;;;;5090508;28;20329;-16
2022/06/13 15:04:22;;;;;;;8.35;0.90;;;;;;;;;;5085398;28;20739;-17
2022/06/13 15:07:11;;;;;;;2.85;0.68;;;;;;;;;;5033138;28;20238;-16
2022/06/13 15:09:42;;;;;;;5.93;1.00;;;;;;;;;;5080490;28;20243;-16
2022/06/13 15:12:10;;;;;;;4.18;0.77;;;;;;;;;;5090127;28;20239;-16
2022/06/13 15:14:39;;;;;;;3.53;0.73;;;;;;;;;;5086771;28;20711;-16
2022/06/13 15:17:07;;;;;;;3.28;0.90;;;;;;;;;;5085831;28;20695;-16
2022/06/13 15:19:34;;;;;;;4.72;0.80;;;;;;;;;;5087276;28;20251;-16
2022/06/13 15:22:07;;;;;;;6.07;0.80;;;;;;;;;;5084695;28;20772;-16
2022/06/13 15:24:44;;;;;;;7.03;0.98;;;;;;;;;;5087463;28;20267;-17
2022/06/13 15:27:11;;;;;;;5.95;0.68;;;;;;;;;;5084397;28;20882;-16